sensor_id;sensor_type;location;lat;lon;timestamp;pressure;altitude;pressure_sealevel;temperature;humidity
26807;BME280;14380;49.910;6.792;2023-09-07T00:00:58;99141.63;;;15.69;100.00
26807;BME280;14380;49.910;6.792;2023-09-07T00:03:24;99138.56;;;15.88;100.00
26807;BME280;14380;49.910;6.792;2023-09-07T00:05:51;99127.56;;;15.93;100.00
26807;BME280;14380;49.910;6.792;2023-09-07T00:08:17;99131.41;;;15.63;100.00
26807;BME280;14380;49.910;6.792;2023-09-07T00:10:45;99136.50;;;15.79;100.00
26807;BME280;14380;49.910;6.792;2023-09-07T00:13:12;99133.03;;;15.65;100.00
26807;BME280;14380;49.910;6.792;2023-09-07T00:15:38;99129.47;;;15.77;100.00
26807;BME280;14380;49.910;6.792;2023-09-07T00:18:05;99135.78;;;15.64;100.00
26807;BME280;14380;49.910;6.792;2023-09-07T00:20:32;99132.50;;;15.60;100.00
26807;BME280;14380;49.910;6.792;2023-09-07T00:22:58;99135.81;;;15.38;100.00
26807;BME280;14380;49.910;6.792;2023-09-07T00:25:25;99127.91;;;15.36;100.00
26807;BME280;14380;49.910;6.792;2023-09-07T00:27:53;99127.06;;;15.61;100.00
26807;BME280;14380;49.910;6.792;2023-09-07T00:30:20;99135.53;;;15.93;100.00
26807;BME280;14380;49.910;6.792;2023-09-07T00:32:47;99134.19;;;15.61;100.00
26807;BME280;14380;49.910;6.792;2023-09-07T00:35:13;99134.50;;;15.69;100.00
26807;BME280;14380;49.910;6.792;2023-09-07T00:37:40;99133.25;;;15.62;100.00
26807;BME280;14380;49.910;6.792;2023-09-07T00:40:07;99130.06;;;15.44;100.00
26807;BME280;14380;49.910;6.792;2023-09-07T00:42:35;99124.81;;;15.55;100.00
26807;BME280;14380;49.910;6.792;2023-09-07T00:45:04;99123.44;;;15.50;100.00
26807;BME280;14380;49.910;6.792;2023-09-07T00:47:33;99124.38;;;15.61;100.00
26807;BME280;14380;49.910;6.792;2023-09-07T00:50:00;99131.53;;;15.35;100.00
26807;BME280;14380;49.910;6.792;2023-09-07T00:52:27;99131.84;;;15.43;100.00
26807;BME280;14380;49.910;6.792;2023-09-07T00:54:54;99127.38;;;15.57;100.00
26807;BME280;14380;49.910;6.792;2023-09-07T00:57:20;99129.09;;;15.32;100.00
26807;BME280;14380;49.910;6.792;2023-09-07T00:59:47;99126.19;;;15.48;100.00
26807;BME280;14380;49.910;6.792;2023-09-07T01:02:15;99121.53;;;15.52;100.00
26807;BME280;14380;49.910;6.792;2023-09-07T01:04:41;99127.28;;;15.20;100.00
26807;BME280;14380;49.910;6.792;2023-09-07T01:07:14;99127.16;;;15.21;100.00
26807;BME280;14380;49.910;6.792;2023-09-07T01:09:43;99120.13;;;15.07;100.00
26807;BME280;14380;49.910;6.792;2023-09-07T01:12:14;99120.88;;;14.96;100.00
26807;BME280;14380;49.910;6.792;2023-09-07T01:14:41;99118.00;;;14.99;100.00
26807;BME280;14380;49.910;6.792;2023-09-07T01:17:08;99115.78;;;14.93;100.00
26807;BME280;14380;49.910;6.792;2023-09-07T01:19:37;99118.03;;;15.12;100.00
26807;BME280;14380;49.910;6.792;2023-09-07T01:22:05;99119.72;;;15.13;100.00
26807;BME280;14380;49.910;6.792;2023-09-07T01:24:33;99121.72;;;15.10;100.00
26807;BME280;14380;49.910;6.792;2023-09-07T01:27:01;99115.97;;;14.63;100.00
26807;BME280;14380;49.910;6.792;2023-09-07T01:29:28;99108.22;;;15.00;100.00
26807;BME280;14380;49.910;6.792;2023-09-07T01:31:55;99109.44;;;14.81;100.00
26807;BME280;14380;49.910;6.792;2023-09-07T01:34:22;99106.19;;;14.63;100.00
26807;BME280;14380;49.910;6.792;2023-09-07T01:36:48;99105.09;;;14.80;100.00
26807;BME280;14380;49.910;6.792;2023-09-07T01:39:16;99111.28;;;15.07;100.00
26807;BME280;14380;49.910;6.792;2023-09-07T01:41:43;99107.66;;;14.95;100.00
26807;BME280;14380;49.910;6.792;2023-09-07T01:44:09;99102.56;;;15.05;100.00
26807;BME280;14380;49.910;6.792;2023-09-07T01:46:36;99104.66;;;14.74;100.00
26807;BME280;14380;49.910;6.792;2023-09-07T01:49:02;99101.72;;;14.51;100.00
26807;BME280;14380;49.910;6.792;2023-09-07T01:51:29;99101.38;;;14.70;100.00
26807;BME280;14380;49.910;6.792;2023-09-07T01:53:55;99107.78;;;14.93;100.00
26807;BME280;14380;49.910;6.792;2023-09-07T01:56:23;99108.84;;;14.63;100.00
26807;BME280;14380;49.910;6.792;2023-09-07T01:58:49;99107.31;;;14.74;100.00
26807;BME280;14380;49.910;6.792;2023-09-07T02:01:21;99105.94;;;14.81;100.00
26807;BME280;14380;49.910;6.792;2023-09-07T02:03:48;99113.97;;;14.39;100.00
26807;BME280;14380;49.910;6.792;2023-09-07T02:06:14;99114.06;;;14.65;100.00
26807;BME280;14380;49.910;6.792;2023-09-07T02:08:41;99112.16;;;14.67;100.00
26807;BME280;14380;49.910;6.792;2023-09-07T02:11:07;99105.97;;;14.66;100.00
26807;BME280;14380;49.910;6.792;2023-09-07T02:13:35;99111.22;;;14.68;100.00
26807;BME280;14380;49.910;6.792;2023-09-07T02:16:03;99113.22;;;14.64;100.00
26807;BME280;14380;49.910;6.792;2023-09-07T02:18:31;99109.69;;;14.91;100.00
26807;BME280;14380;49.910;6.792;2023-09-07T02:21:01;99109.34;;;14.70;100.00
26807;BME280;14380;49.910;6.792;2023-09-07T02:23:27;99105.25;;;14.37;100.00
26807;BME280;14380;49.910;6.792;2023-09-07T02:25:54;99106.56;;;14.44;100.00
26807;BME280;14380;49.910;6.792;2023-09-07T02:28:20;99104.28;;;14.65;100.00
26807;BME280;14380;49.910;6.792;2023-09-07T02:30:48;99101.88;;;14.35;100.00
26807;BME280;14380;49.910;6.792;2023-09-07T02:33:15;99107.09;;;14.22;100.00
26807;BME280;14380;49.910;6.792;2023-09-07T02:35:41;99098.75;;;14.28;100.00
26807;BME280;14380;49.910;6.792;2023-09-07T02:38:08;99097.16;;;14.25;100.00
26807;BME280;14380;49.910;6.792;2023-09-07T02:40:40;99107.78;;;14.25;100.00
26807;BME280;14380;49.910;6.792;2023-09-07T02:43:07;99098.50;;;14.18;100.00
26807;BME280;14380;49.910;6.792;2023-09-07T02:45:33;99093.78;;;14.36;100.00
26807;BME280;14380;49.910;6.792;2023-09-07T02:48:01;99094.22;;;14.16;100.00
26807;BME280;14380;49.910;6.792;2023-09-07T02:50:29;99094.59;;;14.24;100.00
26807;BME280;14380;49.910;6.792;2023-09-07T02:52:56;99090.69;;;14.30;100.00
26807;BME280;14380;49.910;6.792;2023-09-07T02:55:22;99094.78;;;14.21;100.00
26807;BME280;14380;49.910;6.792;2023-09-07T02:57:49;99092.94;;;14.08;100.00
26807;BME280;14380;49.910;6.792;2023-09-07T03:00:16;99092.69;;;14.26;100.00
26807;BME280;14380;49.910;6.792;2023-09-07T03:02:42;99088.50;;;14.22;100.00
26807;BME280;14380;49.910;6.792;2023-09-07T03:05:10;99085.09;;;14.20;100.00
26807;BME280;14380;49.910;6.792;2023-09-07T03:07:37;99082.13;;;14.11;100.00
26807;BME280;14380;49.910;6.792;2023-09-07T03:10:05;99084.63;;;14.27;100.00
26807;BME280;14380;49.910;6.792;2023-09-07T03:12:31;99084.88;;;14.10;100.00
26807;BME280;14380;49.910;6.792;2023-09-07T03:14:58;99082.91;;;14.26;100.00
26807;BME280;14380;49.910;6.792;2023-09-07T03:17:28;99083.59;;;14.16;100.00
26807;BME280;14380;49.910;6.792;2023-09-07T03:19:55;99077.72;;;14.38;100.00
26807;BME280;14380;49.910;6.792;2023-09-07T03:22:23;99082.03;;;14.53;100.00
26807;BME280;14380;49.910;6.792;2023-09-07T03:24:50;99073.97;;;14.55;100.00
26807;BME280;14380;49.910;6.792;2023-09-07T03:27:17;99077.69;;;14.65;100.00
26807;BME280;14380;49.910;6.792;2023-09-07T03:29:44;99083.03;;;14.65;100.00
26807;BME280;14380;49.910;6.792;2023-09-07T03:32:11;99084.09;;;14.63;100.00
26807;BME280;14380;49.910;6.792;2023-09-07T03:34:37;99082.06;;;14.66;100.00
26807;BME280;14380;49.910;6.792;2023-09-07T03:37:04;99078.78;;;14.63;100.00
26807;BME280;14380;49.910;6.792;2023-09-07T03:39:32;99085.81;;;14.36;100.00
26807;BME280;14380;49.910;6.792;2023-09-07T03:41:59;99075.97;;;14.51;100.00
26807;BME280;14380;49.910;6.792;2023-09-07T03:44:25;99073.63;;;14.47;100.00
26807;BME280;14380;49.910;6.792;2023-09-07T03:46:52;99076.78;;;14.39;100.00
26807;BME280;14380;49.910;6.792;2023-09-07T03:49:18;99084.44;;;14.31;100.00
26807;BME280;14380;49.910;6.792;2023-09-07T03:51:45;99078.84;;;14.21;100.00
26807;BME280;14380;49.910;6.792;2023-09-07T03:54:11;99080.66;;;14.20;100.00
26807;BME280;14380;49.910;6.792;2023-09-07T03:56:39;99079.88;;;14.05;100.00
26807;BME280;14380;49.910;6.792;2023-09-07T03:59:06;99082.78;;;14.01;100.00
26807;BME280;14380;49.910;6.792;2023-09-07T04:01:32;99082.91;;;13.99;100.00
26807;BME280;14380;49.910;6.792;2023-09-07T04:03:59;99083.09;;;13.96;100.00
26807;BME280;14380;49.910;6.792;2023-09-07T04:06:25;99082.97;;;14.12;100.00
26807;BME280;14380;49.910;6.792;2023-09-07T04:08:52;99085.75;;;13.96;100.00
26807;BME280;14380;49.910;6.792;2023-09-07T04:11:18;99085.22;;;14.18;100.00
26807;BME280;14380;49.910;6.792;2023-09-07T04:13:46;99084.41;;;14.03;100.00
26807;BME280;14380;49.910;6.792;2023-09-07T04:16:13;99088.16;;;13.86;100.00
26807;BME280;14380;49.910;6.792;2023-09-07T04:18:39;99080.19;;;13.86;100.00
26807;BME280;14380;49.910;6.792;2023-09-07T04:21:08;99079.44;;;13.84;100.00
26807;BME280;14380;49.910;6.792;2023-09-07T04:23:35;99081.19;;;13.98;100.00
26807;BME280;14380;49.910;6.792;2023-09-07T04:26:06;99076.84;;;13.97;100.00
26807;BME280;14380;49.910;6.792;2023-09-07T04:28:33;99080.38;;;13.83;100.00
26807;BME280;14380;49.910;6.792;2023-09-07T04:31:01;99078.19;;;13.90;100.00
26807;BME280;14380;49.910;6.792;2023-09-07T04:33:29;99077.59;;;13.99;100.00
26807;BME280;14380;49.910;6.792;2023-09-07T04:35:56;99081.47;;;13.66;100.00
26807;BME280;14380;49.910;6.792;2023-09-07T04:38:22;99079.25;;;13.73;100.00
26807;BME280;14380;49.910;6.792;2023-09-07T04:40:49;99082.28;;;13.81;100.00
26807;BME280;14380;49.910;6.792;2023-09-07T04:43:15;99092.78;;;13.82;100.00
26807;BME280;14380;49.910;6.792;2023-09-07T04:45:46;99091.66;;;13.72;100.00
26807;BME280;14380;49.910;6.792;2023-09-07T04:48:14;99085.53;;;13.57;100.00
26807;BME280;14380;49.910;6.792;2023-09-07T04:50:40;99090.44;;;13.34;100.00
26807;BME280;14380;49.910;6.792;2023-09-07T04:53:07;99092.16;;;13.64;100.00
26807;BME280;14380;49.910;6.792;2023-09-07T04:55:37;99092.91;;;13.66;100.00
26807;BME280;14380;49.910;6.792;2023-09-07T04:58:04;99094.16;;;13.61;100.00
26807;BME280;14380;49.910;6.792;2023-09-07T05:00:30;99091.38;;;13.77;100.00
26807;BME280;14380;49.910;6.792;2023-09-07T05:02:57;99096.22;;;13.70;100.00
26807;BME280;14380;49.910;6.792;2023-09-07T05:05:25;99097.94;;;13.57;100.00
26807;BME280;14380;49.910;6.792;2023-09-07T05:07:51;99097.84;;;13.73;100.00
26807;BME280;14380;49.910;6.792;2023-09-07T05:10:19;99094.31;;;13.87;100.00
26807;BME280;14380;49.910;6.792;2023-09-07T05:12:45;99108.53;;;13.71;100.00
26807;BME280;14380;49.910;6.792;2023-09-07T05:15:12;99098.31;;;13.65;100.00
26807;BME280;14380;49.910;6.792;2023-09-07T05:17:38;99103.97;;;13.88;100.00
26807;BME280;14380;49.910;6.792;2023-09-07T05:20:06;99100.50;;;13.58;100.00
26807;BME280;14380;49.910;6.792;2023-09-07T05:22:35;99106.56;;;13.60;100.00
26807;BME280;14380;49.910;6.792;2023-09-07T05:25:05;99108.94;;;13.65;100.00
26807;BME280;14380;49.910;6.792;2023-09-07T05:27:31;99113.06;;;13.69;100.00
26807;BME280;14380;49.910;6.792;2023-09-07T05:29:58;99113.38;;;13.50;100.00
26807;BME280;14380;49.910;6.792;2023-09-07T05:32:24;99109.03;;;13.63;100.00
26807;BME280;14380;49.910;6.792;2023-09-07T05:34:51;99111.19;;;13.86;100.00
26807;BME280;14380;49.910;6.792;2023-09-07T05:37:18;99113.94;;;13.70;100.00
26807;BME280;14380;49.910;6.792;2023-09-07T05:39:45;99116.78;;;13.81;100.00
26807;BME280;14380;49.910;6.792;2023-09-07T05:42:12;99122.56;;;13.88;100.00
26807;BME280;14380;49.910;6.792;2023-09-07T05:44:38;99123.13;;;13.93;100.00
26807;BME280;14380;49.910;6.792;2023-09-07T05:47:05;99124.81;;;14.08;100.00
26807;BME280;14380;49.910;6.792;2023-09-07T05:49:32;99123.13;;;13.93;100.00
26807;BME280;14380;49.910;6.792;2023-09-07T05:51:58;99132.59;;;13.97;100.00
26807;BME280;14380;49.910;6.792;2023-09-07T05:54:25;99130.88;;;13.96;100.00
26807;BME280;14380;49.910;6.792;2023-09-07T05:56:53;99133.72;;;13.93;100.00
26807;BME280;14380;49.910;6.792;2023-09-07T05:59:19;99130.88;;;14.10;100.00
26807;BME280;14380;49.910;6.792;2023-09-07T06:01:46;99130.66;;;14.13;100.00
26807;BME280;14380;49.910;6.792;2023-09-07T06:04:12;99136.06;;;14.12;100.00
26807;BME280;14380;49.910;6.792;2023-09-07T06:06:39;99135.94;;;14.13;100.00
26807;BME280;14380;49.910;6.792;2023-09-07T06:09:05;99140.06;;;14.47;100.00
26807;BME280;14380;49.910;6.792;2023-09-07T06:11:32;99135.91;;;14.42;100.00
26807;BME280;14380;49.910;6.792;2023-09-07T06:14:01;99145.72;;;14.55;100.00
26807;BME280;14380;49.910;6.792;2023-09-07T06:16:28;99139.69;;;14.66;100.00
26807;BME280;14380;49.910;6.792;2023-09-07T06:18:54;99144.06;;;14.67;100.00
26807;BME280;14380;49.910;6.792;2023-09-07T06:21:21;99139.78;;;14.92;100.00
26807;BME280;14380;49.910;6.792;2023-09-07T06:23:47;99138.41;;;14.99;100.00
26807;BME280;14380;49.910;6.792;2023-09-07T06:26:15;99137.16;;;15.69;100.00
26807;BME280;14380;49.910;6.792;2023-09-07T06:28:43;99145.72;;;15.87;100.00
26807;BME280;14380;49.910;6.792;2023-09-07T06:31:10;99143.03;;;15.87;100.00
26807;BME280;14380;49.910;6.792;2023-09-07T06:33:37;99140.19;;;16.39;100.00
26807;BME280;14380;49.910;6.792;2023-09-07T06:36:03;99147.84;;;17.17;100.00
26807;BME280;14380;49.910;6.792;2023-09-07T06:38:30;99148.53;;;16.83;100.00
26807;BME280;14380;49.910;6.792;2023-09-07T06:40:57;99145.56;;;17.35;100.00
26807;BME280;14380;49.910;6.792;2023-09-07T06:43:23;99147.63;;;17.43;100.00
26807;BME280;14380;49.910;6.792;2023-09-07T06:45:49;99144.00;;;17.78;100.00
26807;BME280;14380;49.910;6.792;2023-09-07T06:48:17;99138.41;;;18.15;100.00
26807;BME280;14380;49.910;6.792;2023-09-07T06:50:44;99148.88;;;18.18;100.00
26807;BME280;14380;49.910;6.792;2023-09-07T06:53:10;99145.25;;;18.63;100.00
26807;BME280;14380;49.910;6.792;2023-09-07T06:55:37;99144.47;;;18.72;100.00
26807;BME280;14380;49.910;6.792;2023-09-07T06:58:03;99144.66;;;18.81;100.00
26807;BME280;14380;49.910;6.792;2023-09-07T07:00:30;99152.56;;;18.82;100.00
26807;BME280;14380;49.910;6.792;2023-09-07T07:02:56;99143.94;;;19.11;100.00
26807;BME280;14380;49.910;6.792;2023-09-07T07:05:25;99147.59;;;19.10;100.00
26807;BME280;14380;49.910;6.792;2023-09-07T07:07:53;99140.69;;;19.29;100.00
26807;BME280;14380;49.910;6.792;2023-09-07T07:10:20;99146.03;;;19.29;100.00
26807;BME280;14380;49.910;6.792;2023-09-07T07:12:46;99148.69;;;19.50;100.00
26807;BME280;14380;49.910;6.792;2023-09-07T07:15:13;99145.28;;;19.69;100.00
26807;BME280;14380;49.910;6.792;2023-09-07T07:17:39;99143.28;;;19.93;100.00
26807;BME280;14380;49.910;6.792;2023-09-07T07:20:07;99139.06;;;20.00;100.00
26807;BME280;14380;49.910;6.792;2023-09-07T07:22:35;99143.78;;;19.86;100.00
26807;BME280;14380;49.910;6.792;2023-09-07T07:25:02;99147.09;;;20.50;100.00
26807;BME280;14380;49.910;6.792;2023-09-07T07:27:31;99142.00;;;20.47;100.00
26807;BME280;14380;49.910;6.792;2023-09-07T07:29:57;99136.81;;;20.85;100.00
26807;BME280;14380;49.910;6.792;2023-09-07T07:32:24;99135.13;;;20.94;100.00
26807;BME280;14380;49.910;6.792;2023-09-07T07:34:50;99136.66;;;21.06;100.00
26807;BME280;14380;49.910;6.792;2023-09-07T07:37:17;99129.25;;;21.38;99.84
26807;BME280;14380;49.910;6.792;2023-09-07T07:39:44;99137.53;;;21.07;100.00
26807;BME280;14380;49.910;6.792;2023-09-07T07:42:11;99132.00;;;20.99;100.00
26807;BME280;14380;49.910;6.792;2023-09-07T07:44:37;99133.34;;;21.62;100.00
26807;BME280;14380;49.910;6.792;2023-09-07T07:47:04;99129.66;;;21.43;100.00
26807;BME280;14380;49.910;6.792;2023-09-07T07:49:30;99133.66;;;21.29;100.00
26807;BME280;14380;49.910;6.792;2023-09-07T07:51:58;99125.28;;;21.90;95.11
26807;BME280;14380;49.910;6.792;2023-09-07T07:54:24;99123.84;;;22.23;99.18
26807;BME280;14380;49.910;6.792;2023-09-07T07:56:52;99123.53;;;22.26;94.44
26807;BME280;14380;49.910;6.792;2023-09-07T07:59:19;99116.81;;;22.31;94.81
26807;BME280;14380;49.910;6.792;2023-09-07T08:01:45;99117.50;;;22.14;95.58
26807;BME280;14380;49.910;6.792;2023-09-07T08:04:12;99112.25;;;22.59;94.99
26807;BME280;14380;49.910;6.792;2023-09-07T08:06:38;99111.41;;;22.40;94.94
26807;BME280;14380;49.910;6.792;2023-09-07T08:09:05;99110.56;;;22.76;94.64
26807;BME280;14380;49.910;6.792;2023-09-07T08:11:31;99119.19;;;22.80;97.12
26807;BME280;14380;49.910;6.792;2023-09-07T08:13:59;99111.72;;;22.73;96.91
26807;BME280;14380;49.910;6.792;2023-09-07T08:16:27;99115.38;;;23.09;93.19
26807;BME280;14380;49.910;6.792;2023-09-07T08:18:53;99116.09;;;22.93;94.95
26807;BME280;14380;49.910;6.792;2023-09-07T08:21:20;99111.91;;;23.35;94.49
26807;BME280;14380;49.910;6.792;2023-09-07T08:23:46;99116.78;;;22.95;100.00
26807;BME280;14380;49.910;6.792;2023-09-07T08:26:13;99113.69;;;23.08;94.65
26807;BME280;14380;49.910;6.792;2023-09-07T08:28:42;99109.16;;;23.08;89.14
26807;BME280;14380;49.910;6.792;2023-09-07T08:31:12;99120.91;;;23.52;95.67
26807;BME280;14380;49.910;6.792;2023-09-07T08:33:39;99117.75;;;23.91;92.99
26807;BME280;14380;49.910;6.792;2023-09-07T08:36:06;99123.53;;;23.70;96.09
26807;BME280;14380;49.910;6.792;2023-09-07T08:38:34;99111.22;;;24.02;85.49
26807;BME280;14380;49.910;6.792;2023-09-07T08:41:01;99111.91;;;24.04;89.03
26807;BME280;14380;49.910;6.792;2023-09-07T08:43:32;99110.94;;;24.13;94.41
26807;BME280;14380;49.910;6.792;2023-09-07T08:46:04;99108.13;;;24.31;90.11
26807;BME280;14380;49.910;6.792;2023-09-07T08:48:35;99110.94;;;24.13;92.24
26807;BME280;14380;49.910;6.792;2023-09-07T08:51:03;99112.88;;;24.71;90.09
26807;BME280;14380;49.910;6.792;2023-09-07T08:53:32;99113.38;;;24.58;93.88
26807;BME280;14380;49.910;6.792;2023-09-07T08:55:59;99119.69;;;24.83;87.94
26807;BME280;14380;49.910;6.792;2023-09-07T08:58:27;99117.16;;;24.90;94.74
26807;BME280;14380;49.910;6.792;2023-09-07T09:00:53;99118.16;;;24.80;91.33
26807;BME280;14380;49.910;6.792;2023-09-07T09:03:23;99111.56;;;25.00;93.46
26807;BME280;14380;49.910;6.792;2023-09-07T09:05:52;99115.47;;;25.14;92.45
26807;BME280;14380;49.910;6.792;2023-09-07T09:08:19;99114.59;;;25.30;91.75
26807;BME280;14380;49.910;6.792;2023-09-07T09:10:49;99119.34;;;24.86;91.46
26807;BME280;14380;49.910;6.792;2023-09-07T09:13:27;99106.09;;;25.58;87.85
26807;BME280;14380;49.910;6.792;2023-09-07T09:15:54;99112.50;;;25.65;85.65
26807;BME280;14380;49.910;6.792;2023-09-07T09:18:20;99114.84;;;25.68;82.92
26807;BME280;14380;49.910;6.792;2023-09-07T09:20:47;99106.66;;;25.84;84.83
26807;BME280;14380;49.910;6.792;2023-09-07T09:23:15;99108.41;;;26.17;85.44
26807;BME280;14380;49.910;6.792;2023-09-07T09:25:42;99104.00;;;26.16;82.63
26807;BME280;14380;49.910;6.792;2023-09-07T09:28:08;99109.00;;;25.56;86.87
26807;BME280;14380;49.910;6.792;2023-09-07T09:30:35;99106.38;;;25.79;84.39
26807;BME280;14380;49.910;6.792;2023-09-07T09:33:02;99097.34;;;25.95;82.05
26807;BME280;14380;49.910;6.792;2023-09-07T09:35:30;99099.38;;;25.37;81.48
26807;BME280;14380;49.910;6.792;2023-09-07T09:38:00;99094.09;;;26.00;80.35
26807;BME280;14380;49.910;6.792;2023-09-07T09:40:31;99096.81;;;26.00;79.97
26807;BME280;14380;49.910;6.792;2023-09-07T09:42:57;99092.69;;;26.12;81.95
26807;BME280;14380;49.910;6.792;2023-09-07T09:45:26;99097.38;;;25.87;81.68
26807;BME280;14380;49.910;6.792;2023-09-07T09:47:54;99085.34;;;26.53;81.08
26807;BME280;14380;49.910;6.792;2023-09-07T09:50:22;99084.56;;;26.21;77.78
26807;BME280;14380;49.910;6.792;2023-09-07T09:52:48;99086.03;;;26.23;84.92
26807;BME280;14380;49.910;6.792;2023-09-07T09:55:17;99077.56;;;26.96;80.59
26807;BME280;14380;49.910;6.792;2023-09-07T09:57:45;99086.66;;;27.04;83.88
26807;BME280;14380;49.910;6.792;2023-09-07T10:00:13;99084.78;;;27.19;79.30
26807;BME280;14380;49.910;6.792;2023-09-07T10:02:55;99083.44;;;26.85;75.06
26807;BME280;14380;49.910;6.792;2023-09-07T10:05:24;99077.97;;;27.38;82.80
26807;BME280;14380;49.910;6.792;2023-09-07T10:07:51;99079.00;;;27.22;80.08
26807;BME280;14380;49.910;6.792;2023-09-07T10:10:19;99078.03;;;27.68;79.72
26807;BME280;14380;49.910;6.792;2023-09-07T10:12:52;99076.22;;;27.90;79.96
26807;BME280;14380;49.910;6.792;2023-09-07T10:15:21;99080.19;;;27.58;77.69
26807;BME280;14380;49.910;6.792;2023-09-07T10:17:48;99074.97;;;27.56;74.23
26807;BME280;14380;49.910;6.792;2023-09-07T10:20:16;99072.47;;;27.31;77.52
26807;BME280;14380;49.910;6.792;2023-09-07T10:22:43;99064.66;;;27.82;74.06
26807;BME280;14380;49.910;6.792;2023-09-07T10:25:20;99059.88;;;27.69;74.12
26807;BME280;14380;49.910;6.792;2023-09-07T10:27:49;99059.94;;;27.90;77.33
26807;BME280;14380;49.910;6.792;2023-09-07T10:30:15;99049.56;;;27.79;77.86
26807;BME280;14380;49.910;6.792;2023-09-07T10:32:45;99048.88;;;27.92;73.83
26807;BME280;14380;49.910;6.792;2023-09-07T10:35:13;99047.94;;;28.15;75.94
26807;BME280;14380;49.910;6.792;2023-09-07T10:37:40;99041.16;;;28.11;76.04
26807;BME280;14380;49.910;6.792;2023-09-07T10:40:08;99044.63;;;28.19;72.54
26807;BME280;14380;49.910;6.792;2023-09-07T10:42:37;99043.03;;;28.10;72.98
26807;BME280;14380;49.910;6.792;2023-09-07T10:45:13;99042.00;;;28.11;72.31
26807;BME280;14380;49.910;6.792;2023-09-07T10:47:41;99030.47;;;28.68;74.58
26807;BME280;14380;49.910;6.792;2023-09-07T10:50:10;99034.59;;;28.42;70.06
26807;BME280;14380;49.910;6.792;2023-09-07T10:52:38;99036.63;;;28.33;72.60
26807;BME280;14380;49.910;6.792;2023-09-07T10:55:05;99031.44;;;28.16;75.32
26807;BME280;14380;49.910;6.792;2023-09-07T10:57:32;99034.88;;;28.69;73.06
26807;BME280;14380;49.910;6.792;2023-09-07T11:00:08;99036.63;;;28.76;71.14
26807;BME280;14380;49.910;6.792;2023-09-07T11:02:37;99035.13;;;28.30;69.79
26807;BME280;14380;49.910;6.792;2023-09-07T11:05:04;99030.88;;;28.93;70.72
26807;BME280;14380;49.910;6.792;2023-09-07T11:07:32;99024.97;;;28.83;71.16
26807;BME280;14380;49.910;6.792;2023-09-07T11:09:59;99028.66;;;28.31;68.79
26807;BME280;14380;49.910;6.792;2023-09-07T11:12:25;99026.28;;;28.93;70.85
26807;BME280;14380;49.910;6.792;2023-09-07T11:14:53;99025.34;;;29.08;71.74
26807;BME280;14380;49.910;6.792;2023-09-07T11:17:26;99013.22;;;29.39;72.01
26807;BME280;14380;49.910;6.792;2023-09-07T11:19:54;99016.06;;;29.31;66.37
26807;BME280;14380;49.910;6.792;2023-09-07T11:22:21;99010.38;;;29.26;67.56
26807;BME280;14380;49.910;6.792;2023-09-07T11:24:48;99008.81;;;29.87;73.37
26807;BME280;14380;49.910;6.792;2023-09-07T11:27:17;99006.09;;;29.38;66.92
26807;BME280;14380;49.910;6.792;2023-09-07T11:29:50;99004.44;;;29.44;66.07
26807;BME280;14380;49.910;6.792;2023-09-07T11:32:18;99004.16;;;29.74;65.20
26807;BME280;14380;49.910;6.792;2023-09-07T11:34:47;99002.28;;;29.32;71.25
26807;BME280;14380;49.910;6.792;2023-09-07T11:37:16;98998.38;;;29.97;67.53
26807;BME280;14380;49.910;6.792;2023-09-07T11:39:43;98995.53;;;29.63;66.72
26807;BME280;14380;49.910;6.792;2023-09-07T11:42:10;98997.50;;;29.90;68.80
26807;BME280;14380;49.910;6.792;2023-09-07T11:44:36;98997.69;;;29.81;68.46
26807;BME280;14380;49.910;6.792;2023-09-07T11:47:04;98995.78;;;29.75;65.36
26807;BME280;14380;49.910;6.792;2023-09-07T11:49:31;98993.84;;;30.38;66.17
26807;BME280;14380;49.910;6.792;2023-09-07T11:51:58;98987.84;;;29.80;65.52
26807;BME280;14380;49.910;6.792;2023-09-07T11:54:26;98995.00;;;29.95;68.74
26807;BME280;14380;49.910;6.792;2023-09-07T11:56:52;98986.94;;;29.60;65.04
26807;BME280;14380;49.910;6.792;2023-09-07T11:59:19;98981.28;;;30.50;63.38
26807;BME280;14380;49.910;6.792;2023-09-07T12:01:46;98990.28;;;30.24;64.31
26807;BME280;14380;49.910;6.792;2023-09-07T12:04:12;98976.03;;;30.42;64.41
26807;BME280;14380;49.910;6.792;2023-09-07T12:06:39;98983.25;;;29.88;63.39
26807;BME280;14380;49.910;6.792;2023-09-07T12:09:06;98974.31;;;30.07;63.09
26807;BME280;14380;49.910;6.792;2023-09-07T12:11:35;98980.31;;;29.89;63.32
26807;BME280;14380;49.910;6.792;2023-09-07T12:14:04;98969.91;;;30.06;66.14
26807;BME280;14380;49.910;6.792;2023-09-07T12:16:32;98969.97;;;30.47;63.65
26807;BME280;14380;49.910;6.792;2023-09-07T12:18:58;98973.75;;;30.59;65.29
26807;BME280;14380;49.910;6.792;2023-09-07T12:21:25;98973.56;;;30.61;62.08
26807;BME280;14380;49.910;6.792;2023-09-07T12:23:50;98974.16;;;30.76;66.99
26807;BME280;14380;49.910;6.792;2023-09-07T12:26:17;98974.81;;;30.58;62.53
26807;BME280;14380;49.910;6.792;2023-09-07T12:28:47;98966.63;;;30.71;61.99
26807;BME280;14380;49.910;6.792;2023-09-07T12:31:13;98964.50;;;30.87;61.77
26807;BME280;14380;49.910;6.792;2023-09-07T12:33:40;98973.28;;;30.22;61.59
26807;BME280;14380;49.910;6.792;2023-09-07T12:36:06;98970.38;;;30.91;61.67
26807;BME280;14380;49.910;6.792;2023-09-07T12:38:35;98967.00;;;31.02;62.79
26807;BME280;14380;49.910;6.792;2023-09-07T12:41:01;98961.75;;;30.94;63.59
26807;BME280;14380;49.910;6.792;2023-09-07T12:43:28;98962.78;;;31.65;63.49
26807;BME280;14380;49.910;6.792;2023-09-07T12:45:56;98964.34;;;31.48;61.25
26807;BME280;14380;49.910;6.792;2023-09-07T12:48:24;98963.16;;;31.30;62.31
26807;BME280;14380;49.910;6.792;2023-09-07T12:50:50;98961.91;;;31.26;60.62
26807;BME280;14380;49.910;6.792;2023-09-07T12:53:17;98958.19;;;31.00;62.22
26807;BME280;14380;49.910;6.792;2023-09-07T12:55:44;98969.91;;;31.14;61.54